createdAt,value
2018-07-12T00:00:10.065Z,16.10
2018-07-12T00:02:37.384Z,16.20
2018-07-12T00:05:04.938Z,16.20
2018-07-12T00:07:32.270Z,16.20
2018-07-12T00:09:59.588Z,16.20
2018-07-12T00:12:27.097Z,16.10
2018-07-12T00:14:54.401Z,16.10
2018-07-12T00:17:21.734Z,16.20
2018-07-12T00:19:49.254Z,16.10
2018-07-12T00:22:16.561Z,16.10
2018-07-12T00:24:43.881Z,16.10
2018-07-12T00:27:11.381Z,16.10
2018-07-12T00:29:38.705Z,16.10
2018-07-12T00:32:06.037Z,16.10
2018-07-12T00:34:33.799Z,16.10
2018-07-12T00:37:01.184Z,16.10
2018-07-12T00:39:28.517Z,16.10
2018-07-12T00:41:55.938Z,16.10
2018-07-12T00:44:23.284Z,16.10
2018-07-12T00:46:50.609Z,16.10
2018-07-12T00:49:18.124Z,16.10
2018-07-12T00:51:45.461Z,16.10
2018-07-12T00:54:12.793Z,16.10
2018-07-12T00:56:40.349Z,16.10
2018-07-12T00:59:07.677Z,16.10
2018-07-12T01:04:02.705Z,16.10
2018-07-12T01:06:30.021Z,16.10
2018-07-12T01:08:57.345Z,16.10
2018-07-12T01:11:24.713Z,16.10
2018-07-12T01:13:52.038Z,16.10
2018-07-12T01:16:19.370Z,16.10
2018-07-12T01:18:46.990Z,16.10
2018-07-12T01:21:15.233Z,16.10
2018-07-12T01:23:42.551Z,16.20
2018-07-12T01:26:10.081Z,16.10
2018-07-12T01:28:37.513Z,16.20
2018-07-12T01:31:04.814Z,16.10
2018-07-12T01:33:32.457Z,16.10
2018-07-12T01:35:59.829Z,16.10
2018-07-12T01:38:27.157Z,16.10
2018-07-12T01:40:54.656Z,16.10
2018-07-12T01:43:21.977Z,16.10
2018-07-12T01:45:49.351Z,16.10
2018-07-12T01:48:16.904Z,16.10
2018-07-12T01:50:45.178Z,16.20
2018-07-12T01:53:12.564Z,16.10
2018-07-12T01:55:40.217Z,16.20
2018-07-12T01:58:07.555Z,16.20
2018-07-12T02:00:34.987Z,16.20
2018-07-12T02:03:02.490Z,16.20
2018-07-12T02:05:29.833Z,16.20
2018-07-12T02:07:57.194Z,16.20
2018-07-12T02:10:24.728Z,16.10
2018-07-12T02:12:52.088Z,16.10
2018-07-12T02:15:19.462Z,16.10
2018-07-12T02:17:46.992Z,16.10
2018-07-12T02:20:15.245Z,16.10
2018-07-12T02:22:42.577Z,16.00
2018-07-12T02:25:10.080Z,16.00
2018-07-12T02:27:37.481Z,16.00
2018-07-12T02:30:04.882Z,16.00
2018-07-12T02:32:32.226Z,15.90
2018-07-12T02:34:59.639Z,15.90
2018-07-12T02:37:27.001Z,15.90
2018-07-12T02:39:54.373Z,15.80
2018-07-12T02:42:21.893Z,15.80
2018-07-12T02:44:49.240Z,15.80
2018-07-12T02:47:16.747Z,15.80
2018-07-12T02:49:44.073Z,15.70
2018-07-12T02:52:11.703Z,15.70
2018-07-12T02:54:39.046Z,15.70
2018-07-12T02:57:06.353Z,15.60
2018-07-12T02:59:33.698Z,15.60
2018-07-12T03:02:01.340Z,15.60
2018-07-12T03:04:28.684Z,15.50
2018-07-12T03:06:55.989Z,15.60
2018-07-12T03:09:23.317Z,15.50
2018-07-12T03:11:50.653Z,15.50
2018-07-12T03:14:18.013Z,15.50
2018-07-12T03:16:45.452Z,15.50
2018-07-12T03:19:12.781Z,15.50
2018-07-12T03:21:40.113Z,15.50
2018-07-12T03:24:07.457Z,15.50
2018-07-12T03:26:34.772Z,15.50
2018-07-12T03:29:02.133Z,15.50
2018-07-12T03:31:29.442Z,15.50
2018-07-12T03:33:56.786Z,15.50
2018-07-12T03:36:24.116Z,15.50
2018-07-12T03:38:51.670Z,15.50
2018-07-12T03:41:18.988Z,15.50
2018-07-12T03:43:46.337Z,15.50
2018-07-12T03:46:13.681Z,15.50
2018-07-12T03:48:41.018Z,15.50
2018-07-12T03:51:08.349Z,15.60
2018-07-12T03:53:35.669Z,15.60
2018-07-12T03:56:03.001Z,15.70
2018-07-12T03:58:30.307Z,15.70
2018-07-12T04:00:57.649Z,15.80
2018-07-12T04:03:24.945Z,15.80
2018-07-12T04:05:52.289Z,15.90
2018-07-12T04:08:19.600Z,15.90
2018-07-12T04:10:46.979Z,15.90
2018-07-12T04:13:14.265Z,15.90
2018-07-12T04:15:41.597Z,15.90
2018-07-12T04:18:08.921Z,16.00
2018-07-12T04:20:36.277Z,16.10
2018-07-12T04:23:03.592Z,16.10
2018-07-12T04:25:30.965Z,16.10
2018-07-12T04:27:58.272Z,16.20
2018-07-12T04:30:25.633Z,16.20
2018-07-12T04:32:52.973Z,16.30
2018-07-12T04:35:20.345Z,16.40
2018-07-12T04:37:47.705Z,16.60
2018-07-12T04:40:15.817Z,17.10
2018-07-12T04:42:43.137Z,17.80
2018-07-12T04:45:10.481Z,18.60
2018-07-12T04:47:37.777Z,19.20
2018-07-12T04:50:05.137Z,19.70
2018-07-12T04:52:32.483Z,20.00
2018-07-12T04:54:59.836Z,20.10
2018-07-12T04:57:27.283Z,20.00
2018-07-12T04:59:54.657Z,19.80
2018-07-12T05:02:22.025Z,19.50
2018-07-12T05:04:49.361Z,19.20
2018-07-12T05:07:16.741Z,19.00
2018-07-12T05:09:44.161Z,18.70
2018-07-12T05:12:11.481Z,18.50
2018-07-12T05:14:38.857Z,18.40
2018-07-12T05:17:06.234Z,18.20
2018-07-12T05:19:33.641Z,18.10
2018-07-12T05:22:01.021Z,18.10
2018-07-12T05:24:28.382Z,18.00
2018-07-12T05:26:55.770Z,17.90
2018-07-12T05:29:23.169Z,17.80
2018-07-12T05:31:50.513Z,17.80
2018-07-12T05:34:17.882Z,17.70
2018-07-12T05:36:55.105Z,17.60
2018-07-12T05:39:23.527Z,17.60
2018-07-12T05:41:51.965Z,17.50
2018-07-12T05:44:20.431Z,17.60
2018-07-12T05:46:49.235Z,17.60
2018-07-12T05:49:17.771Z,17.70
2018-07-12T05:51:47.556Z,17.90
2018-07-12T05:54:17.041Z,18.30
2018-07-12T05:56:45.769Z,18.50
2018-07-12T06:01:53.712Z,18.70
2018-07-12T06:04:22.085Z,19.20
2018-07-12T06:06:50.437Z,19.50
2018-07-12T06:09:18.818Z,20.00
2018-07-12T06:11:47.253Z,20.60
2018-07-12T06:14:15.702Z,21.20
2018-07-12T06:16:44.057Z,21.70
2018-07-12T06:19:12.448Z,22.50
2018-07-12T06:21:40.794Z,23.60
2018-07-12T06:24:09.217Z,24.50
2018-07-12T06:26:37.578Z,25.10
2018-07-12T06:29:06.277Z,25.60
2018-07-12T06:31:34.681Z,26.30
2018-07-12T06:34:03.057Z,27.10
2018-07-12T06:36:31.441Z,27.70
2018-07-12T06:38:59.827Z,28.10
2018-07-12T06:41:28.229Z,28.40
2018-07-12T06:43:56.621Z,28.50
2018-07-12T06:46:25.033Z,28.40
2018-07-12T06:48:53.416Z,28.60
2018-07-12T06:51:21.856Z,28.80
2018-07-12T06:53:50.232Z,29.10
2018-07-12T06:56:18.657Z,29.00
2018-07-12T06:58:47.448Z,28.80
2018-07-12T07:01:15.885Z,28.80
2018-07-12T07:03:44.259Z,29.10
2018-07-12T07:06:12.663Z,29.20
2018-07-12T07:08:41.089Z,29.30
2018-07-12T07:11:09.545Z,29.30
2018-07-12T07:13:38.017Z,29.30
2018-07-12T07:16:06.793Z,29.50
2018-07-12T07:18:35.178Z,29.40
2018-07-12T07:21:03.633Z,29.00
2018-07-12T07:23:32.028Z,28.90
2018-07-12T07:26:00.426Z,28.80
2018-07-12T07:28:28.821Z,28.80
2018-07-12T07:30:57.201Z,28.70
2018-07-12T07:33:25.615Z,28.50
2018-07-12T07:35:53.981Z,28.40
2018-07-12T07:38:22.381Z,28.20
2018-07-12T07:40:51.371Z,28.00
2018-07-12T07:43:19.817Z,27.70
2018-07-12T07:45:48.183Z,27.60
2018-07-12T07:48:16.581Z,27.50
2018-07-12T07:50:44.938Z,27.40
2018-07-12T07:53:13.389Z,27.40
2018-07-12T07:55:41.765Z,27.40
2018-07-12T07:58:10.153Z,27.50
2018-07-12T08:00:38.609Z,27.60
2018-07-12T08:03:07.181Z,27.50
2018-07-12T08:05:35.613Z,27.30
2018-07-12T08:08:04.114Z,27.40
2018-07-12T08:10:32.486Z,27.50
2018-07-12T08:13:00.889Z,27.50
2018-07-12T08:15:29.229Z,27.40
2018-07-12T08:17:57.649Z,27.40
2018-07-12T08:20:26.026Z,27.40
2018-07-12T08:22:54.432Z,27.50
2018-07-12T08:25:22.810Z,27.60
2018-07-12T08:28:31.361Z,27.70
2018-07-12T08:30:59.765Z,27.70
2018-07-12T08:33:28.187Z,27.70
2018-07-12T08:35:56.580Z,27.70
2018-07-12T08:38:25.034Z,27.70
2018-07-12T08:40:53.490Z,27.90
2018-07-12T08:43:21.896Z,27.90
2018-07-12T08:45:50.245Z,28.00
2018-07-12T08:48:18.740Z,28.00
2018-07-12T08:50:47.148Z,28.10
2018-07-12T08:53:15.568Z,28.40
2018-07-12T08:55:43.956Z,28.50
2018-07-12T08:58:12.381Z,28.50
2018-07-12T09:00:40.813Z,28.60
2018-07-12T09:03:09.193Z,28.60
2018-07-12T09:05:37.608Z,28.60
2018-07-12T09:08:05.997Z,28.50
2018-07-12T09:10:34.441Z,28.50
2018-07-12T09:13:02.916Z,28.60
2018-07-12T09:15:31.323Z,28.60
2018-07-12T09:17:59.933Z,28.70
2018-07-12T09:20:28.645Z,28.80
2018-07-12T09:22:57.116Z,28.80
2018-07-12T09:25:25.508Z,28.90
2018-07-12T09:27:53.932Z,29.10
2018-07-12T09:30:22.329Z,29.20
2018-07-12T09:32:50.990Z,29.20
2018-07-12T09:35:19.430Z,29.30
2018-07-12T09:37:48.481Z,29.30
2018-07-12T09:40:16.904Z,29.30
2018-07-12T09:42:45.400Z,29.40
2018-07-12T09:45:13.793Z,29.50
2018-07-12T09:47:42.301Z,29.60
2018-07-12T09:50:10.705Z,29.60
2018-07-12T09:52:39.059Z,29.70
2018-07-12T09:55:07.486Z,29.70
2018-07-12T09:57:46.998Z,29.80
2018-07-12T10:00:15.517Z,29.90
2018-07-12T10:02:49.215Z,29.90
2018-07-12T10:05:23.993Z,29.90
2018-07-12T10:07:57.769Z,30.00
2018-07-12T10:10:30.138Z,30.20
2018-07-12T10:13:03.859Z,30.10
2018-07-12T10:15:37.777Z,30.10
2018-07-12T10:18:11.449Z,30.20
2018-07-12T10:20:39.861Z,30.30
2018-07-12T10:23:08.221Z,30.30
2018-07-12T10:25:36.589Z,30.30
2018-07-12T10:28:05.005Z,30.10
2018-07-12T10:30:33.357Z,30.00
2018-07-12T10:33:01.733Z,30.00
2018-07-12T10:35:30.118Z,29.90
2018-07-12T10:37:58.517Z,30.10
2018-07-12T10:40:26.896Z,30.20
2018-07-12T10:42:55.304Z,30.30
2018-07-12T10:45:23.765Z,30.20
2018-07-12T10:47:52.330Z,30.00
2018-07-12T10:50:20.760Z,29.60
2018-07-12T10:52:49.160Z,29.50
2018-07-12T10:55:17.621Z,29.30
2018-07-12T10:57:46.013Z,29.10
2018-07-12T11:00:14.418Z,29.10
2018-07-12T11:02:42.776Z,29.10
2018-07-12T11:05:11.177Z,29.20
2018-07-12T11:07:39.608Z,29.40
2018-07-12T11:10:08.037Z,29.60
2018-07-12T11:12:36.399Z,29.60
2018-07-12T11:15:04.948Z,29.50
2018-07-12T11:17:33.321Z,29.50
2018-07-12T11:20:01.750Z,29.40
2018-07-12T11:22:30.189Z,29.20
2018-07-12T11:24:58.653Z,29.20
2018-07-12T11:27:27.849Z,28.90
2018-07-12T11:29:58.717Z,28.60
2018-07-12T11:32:27.113Z,28.50
2018-07-12T11:34:55.538Z,28.20
2018-07-12T11:37:25.432Z,27.90
2018-07-12T11:39:53.824Z,27.60
2018-07-12T11:42:22.247Z,27.40
2018-07-12T11:44:50.912Z,27.20
2018-07-12T11:47:19.800Z,27.00
2018-07-12T11:49:49.217Z,26.80
2018-07-12T11:52:17.685Z,26.60
2018-07-12T11:54:46.144Z,26.40
2018-07-12T11:57:14.597Z,26.20
2018-07-12T11:59:43.094Z,26.10
2018-07-12T12:02:11.662Z,25.90
2018-07-12T12:04:40.049Z,25.80
2018-07-12T12:07:08.463Z,25.80
2018-07-12T12:09:36.885Z,25.70
2018-07-12T12:12:05.304Z,25.60
2018-07-12T12:14:33.892Z,25.60
2018-07-12T12:17:02.328Z,25.70
2018-07-12T12:19:31.050Z,25.60
2018-07-12T12:22:00.130Z,25.70
2018-07-12T12:24:28.622Z,25.80
2018-07-12T12:26:57.078Z,25.90
2018-07-12T12:29:25.557Z,25.90
2018-07-12T12:31:53.928Z,26.00
2018-07-12T12:34:22.416Z,26.00
2018-07-12T12:36:50.866Z,26.10
2018-07-12T12:41:47.539Z,26.20
2018-07-12T12:44:16.033Z,26.30
2018-07-12T12:46:44.478Z,26.40
2018-07-12T12:49:12.873Z,26.50
2018-07-12T12:51:41.392Z,26.60
2018-07-12T12:54:09.981Z,26.70
2018-07-12T12:56:38.502Z,26.70
2018-07-12T12:59:06.973Z,26.60
2018-07-12T13:01:35.453Z,26.60
2018-07-12T13:04:03.984Z,26.40
2018-07-12T13:06:32.401Z,26.30
2018-07-12T13:09:00.813Z,26.10
2018-07-12T13:11:29.225Z,26.00
2018-07-12T13:13:57.852Z,25.90
2018-07-12T13:16:26.195Z,25.80
2018-07-12T13:18:54.626Z,25.70
2018-07-12T13:21:23.032Z,25.60
2018-07-12T13:23:51.416Z,25.50
2018-07-12T13:26:19.808Z,25.40
2018-07-12T13:31:17.385Z,25.30
2018-07-12T13:33:45.777Z,25.20
2018-07-12T13:36:14.164Z,25.20
2018-07-12T13:38:42.600Z,25.10
2018-07-12T13:41:10.976Z,25.10
2018-07-12T13:43:39.385Z,25.00
2018-07-12T13:46:07.745Z,24.90
2018-07-12T13:51:04.351Z,24.80
2018-07-12T13:53:32.747Z,24.90
2018-07-12T13:56:01.127Z,24.90
2018-07-12T13:58:29.546Z,25.00
2018-07-12T14:00:58.057Z,25.10
2018-07-12T14:03:26.461Z,25.20
2018-07-12T14:05:54.904Z,25.20
2018-07-12T14:08:23.319Z,25.20
2018-07-12T14:10:51.757Z,25.20
2018-07-12T14:13:20.440Z,25.20
2018-07-12T14:15:48.916Z,25.10
2018-07-12T14:18:17.299Z,25.30
2018-07-12T14:20:45.663Z,25.50
2018-07-12T14:23:14.056Z,25.80
2018-07-12T14:25:42.475Z,25.90
2018-07-12T14:28:10.854Z,25.80
2018-07-12T14:30:39.277Z,25.70
2018-07-12T14:33:07.801Z,25.50
2018-07-12T14:35:36.208Z,25.40
2018-07-12T14:38:04.597Z,25.30
2018-07-12T14:40:33.002Z,25.20
2018-07-12T14:43:01.373Z,25.10
2018-07-12T14:45:29.769Z,25.00
2018-07-12T14:47:58.157Z,24.90
2018-07-12T14:50:26.545Z,24.90
2018-07-12T14:52:54.993Z,24.90
2018-07-12T14:55:23.470Z,24.90
2018-07-12T14:57:51.940Z,25.10
2018-07-12T15:00:20.404Z,25.10
2018-07-12T15:02:48.862Z,25.20
2018-07-12T15:05:17.229Z,25.40
2018-07-12T15:07:45.605Z,25.60
2018-07-12T15:10:14.005Z,25.60
2018-07-12T15:12:42.353Z,25.60
2018-07-12T15:15:10.827Z,25.70
2018-07-12T15:17:39.213Z,25.70
2018-07-12T15:20:07.782Z,25.70
2018-07-12T15:22:36.141Z,25.60
2018-07-12T15:25:04.854Z,25.50
2018-07-12T15:27:33.231Z,25.40
2018-07-12T15:30:01.639Z,25.20
2018-07-12T15:32:30.047Z,25.00
2018-07-12T15:34:58.411Z,24.90
2018-07-12T15:37:26.797Z,24.90
2018-07-12T15:39:55.213Z,24.90
2018-07-12T15:42:23.590Z,25.00
2018-07-12T15:44:51.982Z,24.90
2018-07-12T15:47:21.020Z,24.70
2018-07-12T15:49:49.450Z,24.50
2018-07-12T15:52:17.953Z,24.30
2018-07-12T15:54:46.344Z,24.20
2018-07-12T15:57:14.701Z,24.10
2018-07-12T15:59:43.090Z,24.00
2018-07-12T16:02:11.499Z,24.00
2018-07-12T16:04:39.951Z,23.90
2018-07-12T16:07:08.317Z,23.80
2018-07-12T16:09:36.724Z,23.70
2018-07-12T16:12:05.465Z,23.60
2018-07-12T16:14:33.838Z,23.60
2018-07-12T16:17:02.202Z,23.50
2018-07-12T16:19:30.634Z,23.40
2018-07-12T16:24:27.193Z,23.50
2018-07-12T16:26:55.589Z,23.40
2018-07-12T16:29:23.997Z,23.40
2018-07-12T16:31:52.377Z,23.40
2018-07-12T16:34:21.458Z,23.40
2018-07-12T16:36:49.954Z,23.50
2018-07-12T16:39:18.420Z,23.40
2018-07-12T16:41:46.849Z,23.40
2018-07-12T16:44:15.197Z,23.30
2018-07-12T16:46:43.573Z,23.30
2018-07-12T16:49:12.000Z,23.20
2018-07-12T16:51:40.376Z,23.10
2018-07-12T16:54:08.793Z,23.10
2018-07-12T16:56:37.157Z,23.20
2018-07-12T16:59:05.997Z,23.20
2018-07-12T17:01:34.497Z,23.20
2018-07-12T17:04:02.899Z,23.20
2018-07-12T17:06:31.368Z,23.30
2018-07-12T17:08:59.762Z,23.40
2018-07-12T17:11:28.175Z,23.40
2018-07-12T17:13:56.560Z,23.30
2018-07-12T17:16:24.965Z,23.40
2018-07-12T17:18:53.357Z,23.40
2018-07-12T17:21:21.761Z,23.40
2018-07-12T17:23:50.231Z,23.30
2018-07-12T17:26:18.637Z,23.30
2018-07-12T17:28:46.997Z,23.30
2018-07-12T17:31:15.501Z,23.30
2018-07-12T17:33:43.889Z,23.30
2018-07-12T17:36:12.341Z,23.20
2018-07-12T17:38:40.821Z,23.20
2018-07-12T17:41:09.288Z,23.20
2018-07-12T17:43:37.709Z,23.20
2018-07-12T17:46:06.261Z,23.10
2018-07-12T17:48:34.672Z,23.00
2018-07-12T17:51:03.113Z,22.90
2018-07-12T17:53:31.573Z,22.90
2018-07-12T17:56:00.000Z,22.80
2018-07-12T17:58:28.366Z,22.70
2018-07-12T18:00:56.753Z,22.70
2018-07-12T18:03:25.141Z,22.60
2018-07-12T18:05:53.534Z,22.60
2018-07-12T18:08:21.928Z,22.50
2018-07-12T18:10:50.349Z,22.40
2018-07-12T18:13:18.704Z,22.40
2018-07-12T18:15:47.433Z,22.30
2018-07-12T18:18:15.809Z,22.20
2018-07-12T18:20:44.227Z,22.10
2018-07-12T18:23:12.712Z,22.00
2018-07-12T18:25:41.088Z,21.90
2018-07-12T18:28:09.505Z,21.90
2018-07-12T18:30:37.869Z,21.80
2018-07-12T18:33:06.907Z,21.70
2018-07-12T18:35:35.335Z,21.70
2018-07-12T18:38:03.821Z,21.60
2018-07-12T18:40:32.149Z,21.50
2018-07-12T18:43:00.548Z,21.40
2018-07-12T18:45:28.929Z,21.30
2018-07-12T18:47:57.433Z,21.10
2018-07-12T18:50:25.802Z,21.00
2018-07-12T18:52:54.213Z,20.90
2018-07-12T18:55:22.593Z,20.70
2018-07-12T18:57:51.963Z,20.50
2018-07-12T19:00:20.377Z,20.40
2018-07-12T19:02:48.787Z,20.30
2018-07-12T19:05:17.188Z,20.20
2018-07-12T19:07:45.701Z,20.10
2018-07-12T19:10:14.105Z,20.00
2018-07-12T19:12:42.496Z,19.90
2018-07-12T19:15:10.962Z,19.80
2018-07-12T19:17:39.318Z,19.70
2018-07-12T19:20:07.780Z,19.60
2018-07-12T19:22:36.224Z,19.50
2018-07-12T19:25:04.630Z,19.40
2018-07-12T19:27:33.037Z,19.40
2018-07-12T19:30:01.463Z,19.30
2018-07-12T19:32:29.845Z,19.20
2018-07-12T19:34:58.322Z,19.20
2018-07-12T19:37:26.741Z,19.10
2018-07-12T19:39:55.338Z,19.00
2018-07-12T19:42:23.736Z,19.00
2018-07-12T19:44:52.144Z,18.90
2018-07-12T19:47:20.710Z,18.80
2018-07-12T19:49:49.129Z,18.80
2018-07-12T19:52:17.537Z,18.70
2018-07-12T19:54:46.812Z,18.50
2018-07-12T19:57:15.292Z,18.50
2018-07-12T19:59:43.683Z,18.40
2018-07-12T20:02:12.084Z,18.40
2018-07-12T20:04:40.494Z,18.30
2018-07-12T20:07:08.900Z,18.30
2018-07-12T20:09:37.301Z,18.30
2018-07-12T20:12:05.800Z,18.30
2018-07-12T20:14:34.225Z,18.30
2018-07-12T20:17:02.613Z,18.30
2018-07-12T20:19:31.025Z,18.20
2018-07-12T20:21:59.425Z,18.20
2018-07-12T20:24:27.944Z,18.10
2018-07-12T20:26:56.310Z,18.10
2018-07-12T20:29:24.700Z,18.00
2018-07-12T20:31:53.138Z,18.00
2018-07-12T20:36:50.659Z,17.90
2018-07-12T20:39:19.028Z,17.80
2018-07-12T20:41:47.397Z,17.80
2018-07-12T20:44:15.797Z,17.70
2018-07-12T20:49:12.382Z,17.60
2018-07-12T20:51:40.809Z,17.60
2018-07-12T20:54:09.212Z,17.50
2018-07-12T20:56:37.601Z,17.50
2018-07-12T20:59:05.966Z,17.40
2018-07-12T21:01:34.434Z,17.40
2018-07-12T21:04:02.822Z,17.30
2018-07-12T21:06:31.229Z,17.30
2018-07-12T21:08:59.589Z,17.30
2018-07-12T21:11:27.965Z,17.20
2018-07-12T21:13:56.353Z,17.20
2018-07-12T21:16:24.758Z,17.60
2018-07-12T21:18:53.202Z,17.10
2018-07-12T21:21:22.432Z,17.10
2018-07-12T21:23:50.765Z,17.20
2018-07-12T21:26:19.162Z,17.20
2018-07-12T21:28:47.569Z,17.20
2018-07-12T21:31:15.973Z,17.10
2018-07-12T21:33:44.314Z,17.10
2018-07-12T21:36:12.766Z,17.10
2018-07-12T21:38:41.160Z,17.10
2018-07-12T21:41:09.562Z,17.20
2018-07-12T21:43:37.968Z,17.20
2018-07-12T21:46:06.652Z,17.20
2018-07-12T21:48:35.045Z,17.10
2018-07-12T21:51:03.621Z,17.20
2018-07-12T21:53:31.971Z,17.10
2018-07-12T21:56:00.438Z,17.10
2018-07-12T21:58:28.881Z,17.10
2018-07-12T22:03:25.442Z,17.00
2018-07-12T22:05:54.090Z,17.00
2018-07-12T22:08:24.601Z,17.00
2018-07-12T22:10:54.359Z,17.00
2018-07-12T22:13:23.304Z,17.00
2018-07-12T22:15:52.506Z,17.00
2018-07-12T22:18:20.909Z,16.90
2018-07-12T22:20:49.315Z,16.90
2018-07-12T22:23:17.728Z,16.80
2018-07-12T22:25:46.185Z,16.80
2018-07-12T22:28:14.590Z,16.80
2018-07-12T22:30:42.963Z,16.80
2018-07-12T22:33:11.417Z,16.80
2018-07-12T22:35:39.797Z,16.80
2018-07-12T22:38:08.221Z,16.80
2018-07-12T22:40:36.714Z,16.80
2018-07-12T22:43:05.197Z,16.80
2018-07-12T22:45:33.629Z,16.70
2018-07-12T22:48:02.109Z,16.70
2018-07-12T22:50:30.454Z,16.70
2018-07-12T22:52:58.837Z,16.70
2018-07-12T22:55:27.263Z,16.80
2018-07-12T22:57:55.680Z,16.80
2018-07-12T23:00:24.073Z,16.70
2018-07-12T23:02:52.749Z,16.70
2018-07-12T23:05:21.121Z,16.70
2018-07-12T23:07:49.502Z,16.70
2018-07-12T23:10:17.892Z,16.60
2018-07-12T23:12:46.281Z,16.60
2018-07-12T23:15:14.657Z,16.60
2018-07-12T23:17:43.064Z,16.60
2018-07-12T23:20:11.450Z,16.70
2018-07-12T23:22:39.853Z,16.70
2018-07-12T23:25:08.284Z,16.70
2018-07-12T23:27:36.681Z,16.70
2018-07-12T23:30:05.521Z,16.70
2018-07-12T23:32:33.942Z,16.70
2018-07-12T23:35:02.325Z,16.70
2018-07-12T23:37:30.716Z,16.70
2018-07-12T23:39:59.110Z,16.70
2018-07-12T23:42:27.499Z,16.70
2018-07-12T23:44:56.441Z,16.70
2018-07-12T23:47:24.833Z,16.70
2018-07-12T23:49:53.233Z,16.70
2018-07-12T23:52:21.643Z,16.60
2018-07-12T23:54:50.059Z,16.60
2018-07-12T23:57:18.476Z,16.60
2018-07-12T23:59:46.868Z,16.60
